Huvudsida
METAR-TAF:

METAR-TAF

Flygplatser :

Francisco Sarabia International Airport

Torreón, Mexiko

latitud: 25-32N, longitud: 103-27W, höjd: 1124 m

Aktuellt väderrapport

Denna rapport gjordes för 41 minuter sedan, klockan 14:47 UTC
Stilla vind
Temperatur 20°C
Fuktighet 46%
Tryck 1020 hPa
Sikt: 11.3 km
Spridda moln på en höjd av 20000 ft

METAR: MMTC 291447Z 00000KT 7SM SCT200 20/08 A3011 RMK SLP109 50021 928 8/002

Tid: 09:28 (15:28 UTC)

Väderprognos

Denna rapport gjordes för 10 timmar och 15 minuter sedan, klockan 05:13 UTC
Prognos gäller från 29 kl. 06 UTC till 30 kl. 06 UTC
Vind kt från nord
Sikt: 10 km
Spridda moln på en höjd av 25000 ft
Från 29 kl. 1800 UTC
Vind 14 kt från syd
Sikt: 10 km
Spridda moln på en höjd av 10000 ft
Brutna moln på en höjd av 25000 ft
Från 30 kl. 0500 UTC
Vind kt från nord
Sikt: 10 km
Spridda moln på en höjd av 25000 ft

TAF: MMTC 290513Z 2906/3006 00000KT P6SM SCT250 FM291800 19014KT P6SM SCT100 BKN250 FM300500 00000KT P6SM SCT250

Aktuella väderrapporter och prognoser från 4000 flygplatser (METAR- och TAF-rapporter).

De tillgängliga stationerna syns som gula och röda prickar på kartan.

För musen över prickarna för att se namnen på stationerna.

Klicka sedan för att få väderrapporter och prognoser.

För att ändra kartan: Klicka på de gröna knapparna med ett svart kors på för att zooma in; den gröna knappen med ett streck på för att zooma ut; eller på de gröna pilarna för angränsande kartor.


METAR-TAF: